Airfield :
LOGIN :

Register | Disclaimer

   EN    FR    IT 

 










Legend :    VFR   Marginal VFR   IFR   Intensive IFR   Very Intensive IFR
Visi :
Ceiling :
>= 8 km
>= 3000ft
5 to 8 km
1000 to 3000 ft
1500m to 5 km
500 to 1000 ft
800 to 1500m
200 to 500 ft
< 800m
< 200 ft
Symbols :   Thunderstorms  Fog  Heavy snow  Heavy precipitations  Wind > 20 kt
SIGMETs :     Misc.  Thunderstorms  Icing  Turbulence  Mountain Waves  Volcanic Ashes







- Airport Elevation : 1260 ft
- IATA code : LDE
- Download approach charts


LFBT - Tarbes / Ossun

CURRENT METAR :
  • 201200Z AUTO 27008KT 220V310 9999 FEW025 16/10 Q1015 NOSIG

EXPIRED METARs :
  • 201130Z AUTO 28008KT 240V320 9999 BKN021 BKN028 BKN068 15/11 Q1015 NOSIG
  • 201100Z AUTO 27008KT 220V310 9999 FEW020 SCT029 15/10 Q1016 BECMG SCT030TCU BKN050
  • 201030Z AUTO 28007KT 240V310 9999 SCT016 SCT033 BKN068 14/11 Q1016 BECMG SCT030TCU BKN050
  • 201000Z AUTO 27007KT 230V310 9999 SCT013 BKN040 OVC064 13/10 Q1016 BECMG SCT030TCU BKN050
  • 200930Z AUTO 26005KT 230V290 9999 -RA FEW010 OVC039 11/10 Q1016 BECMG SCT030TCU BKN050

TAF TAF LFBT
Valid from the 20 at 12:00 until the 21 at 12:00 UTC


201100Z 2012/2112 26008KT 9999 SCT020 SCT040 BKN060
BECMG 2016/2018 BKN028
PROB30
TEMPO 2017/2022 4000 SHRA
BECMG 2020/2022 VRB02KT
BECMG 2108/2110 03005KT SCT035
No reported NOTAMs for that airfield.



MET'MAP, your aeronautical weather chart ! - Copyright ORBIFLY December 2007 - Disclaimer

ORBIFLY MET'MAP TEAM :

Programming & Development : Alexandra Zaïnal
Concept & Development : Baudouin d'Aumeries
Co-Development & Prog : Marc-Olivier Méhu
Technical & hardware support : Manuel Goepfert

Contact : metmap@orbifly.com




SOURCES & CREDITS :

   NOAA